createdAt,value
2022-10-23T00:00:32.718Z,51.08
2022-10-23T00:01:32.669Z,56.07
2022-10-23T00:02:32.753Z,50.11
2022-10-23T00:03:32.636Z,56.24
2022-10-23T00:04:32.621Z,47.70
2022-10-23T00:05:33.617Z,49.79
2022-10-23T00:06:32.617Z,54.46
2022-10-23T00:07:32.598Z,50.60
2022-10-23T00:08:32.582Z,53.50
2022-10-23T00:09:32.573Z,54.46
2022-10-23T00:10:32.563Z,53.98
2022-10-23T00:11:32.560Z,51.24
2022-10-23T00:12:32.544Z,50.60
2022-10-23T00:13:32.535Z,49.47
2022-10-23T00:14:32.522Z,53.01
2022-10-23T00:15:32.516Z,50.92
2022-10-23T00:16:32.520Z,53.82
2022-10-23T00:17:32.496Z,52.21
2022-10-23T00:18:32.483Z,54.30
2022-10-23T00:19:32.477Z,52.37
2022-10-23T00:20:32.467Z,50.43
2022-10-23T00:21:32.472Z,50.76
2022-10-23T00:22:32.444Z,56.72
2022-10-23T00:23:32.466Z,50.43
2022-10-23T00:24:32.424Z,54.14
2022-10-23T00:25:32.417Z,52.21
2022-10-23T00:26:32.413Z,51.72
2022-10-23T00:27:32.395Z,48.18
2022-10-23T00:28:32.385Z,51.72
2022-10-23T00:29:32.371Z,54.46
2022-10-23T00:30:32.361Z,55.43
2022-10-23T00:31:32.364Z,49.47
2022-10-23T00:33:33.333Z,53.82
2022-10-23T00:34:32.321Z,49.63
2022-10-23T00:35:32.315Z,54.30
2022-10-23T00:36:32.306Z,51.08
2022-10-23T00:37:32.288Z,54.79
2022-10-23T00:38:32.282Z,51.24
2022-10-23T00:39:32.286Z,48.02
2022-10-23T00:40:32.269Z,48.34
2022-10-23T00:41:32.266Z,52.69
2022-10-23T00:42:32.239Z,55.91
2022-10-23T00:43:32.226Z,55.91
2022-10-23T00:44:32.217Z,51.24
2022-10-23T00:45:32.212Z,53.01
2022-10-23T00:46:32.195Z,50.60
2022-10-23T00:47:32.192Z,52.53
2022-10-23T00:48:32.175Z,52.05
2022-10-23T00:49:33.613Z,49.95
2022-10-23T00:50:32.167Z,50.60
2022-10-23T00:51:32.151Z,55.43
2022-10-23T00:52:32.137Z,53.01
2022-10-23T00:53:32.127Z,52.85
2022-10-23T00:54:32.117Z,53.66
2022-10-23T00:55:32.117Z,52.53
2022-10-23T00:56:32.092Z,50.11
2022-10-23T00:57:32.087Z,55.43
2022-10-23T00:58:32.077Z,53.33
2022-10-23T00:59:32.065Z,49.79
2022-10-23T01:00:32.075Z,53.33
2022-10-23T01:01:32.247Z,54.95
2022-10-23T01:02:32.096Z,51.56
2022-10-23T01:03:32.024Z,56.72
2022-10-23T01:04:32.012Z,52.53
2022-10-23T01:05:32.017Z,54.14
2022-10-23T01:06:31.993Z,48.82
2022-10-23T01:07:31.982Z,46.08
2022-10-23T01:08:31.970Z,46.73
2022-10-23T01:09:32.030Z,53.33
2022-10-23T01:10:31.961Z,50.60
2022-10-23T01:11:31.942Z,52.53
2022-10-23T01:12:31.932Z,48.02
2022-10-23T01:13:31.922Z,55.59
2022-10-23T01:14:31.910Z,53.66
2022-10-23T01:15:31.911Z,52.05
2022-10-23T01:16:31.899Z,54.30
2022-10-23T01:17:32.884Z,50.11
2022-10-23T01:18:31.872Z,50.27
2022-10-23T01:19:31.863Z,51.08
2022-10-23T01:20:31.865Z,56.40
2022-10-23T01:21:31.841Z,53.33
2022-10-23T01:22:31.833Z,56.07
2022-10-23T01:23:31.822Z,53.66
2022-10-23T01:24:31.810Z,51.40
2022-10-23T01:25:31.792Z,51.08
2022-10-23T01:26:31.798Z,52.37
2022-10-23T01:27:31.779Z,57.36
2022-10-23T01:28:31.766Z,56.72
2022-10-23T01:29:31.757Z,53.33
2022-10-23T01:30:31.899Z,52.05
2022-10-23T01:31:31.745Z,50.92
2022-10-23T01:32:31.723Z,53.17
2022-10-23T01:33:31.713Z,51.24
2022-10-23T01:34:31.706Z,51.56
2022-10-23T01:35:31.697Z,57.85
2022-10-23T01:36:31.691Z,53.82
2022-10-23T01:37:31.671Z,56.56
2022-10-23T01:38:31.665Z,53.01
2022-10-23T01:39:31.643Z,53.82
2022-10-23T01:40:32.641Z,57.69
2022-10-23T01:41:31.643Z,56.56
2022-10-23T01:42:31.624Z,58.17
2022-10-23T01:43:31.616Z,47.53
2022-10-23T01:44:31.598Z,49.47
2022-10-23T01:45:31.590Z,53.82
2022-10-23T01:46:31.593Z,57.20
2022-10-23T01:47:31.572Z,51.24
2022-10-23T01:48:31.560Z,56.07
2022-10-23T01:49:31.548Z,54.95
2022-10-23T01:50:31.543Z,56.88
2022-10-23T01:51:31.541Z,51.40
2022-10-23T01:52:31.524Z,50.27
2022-10-23T01:53:31.508Z,51.72
2022-10-23T01:54:31.504Z,57.36
2022-10-23T01:55:31.574Z,53.66
2022-10-23T01:56:31.493Z,55.75
2022-10-23T01:57:31.469Z,56.07
2022-10-23T01:58:31.459Z,51.72
2022-10-23T01:59:31.450Z,52.85
2022-10-23T02:00:31.441Z,51.72
2022-10-23T02:01:31.588Z,55.11
2022-10-23T02:02:31.480Z,51.24
2022-10-23T02:03:31.413Z,49.47
2022-10-23T02:04:31.405Z,49.95
2022-10-23T02:05:31.390Z,50.60
2022-10-23T02:06:31.395Z,52.21
2022-10-23T02:07:31.373Z,53.66
2022-10-23T02:08:31.365Z,53.17
2022-10-23T02:09:31.354Z,48.98
2022-10-23T02:10:31.345Z,50.60
2022-10-23T02:11:31.344Z,50.76
2022-10-23T02:12:31.325Z,52.69
2022-10-23T02:13:31.316Z,50.43
2022-10-23T02:14:31.307Z,49.95
2022-10-23T02:15:31.296Z,51.08
2022-10-23T02:16:31.300Z,49.31
2022-10-23T02:17:31.368Z,56.40
2022-10-23T02:18:31.264Z,50.11
2022-10-23T02:19:31.254Z,53.33
2022-10-23T02:20:31.293Z,50.27
2022-10-23T02:21:31.251Z,48.98
2022-10-23T02:22:31.225Z,50.76
2022-10-23T02:23:31.212Z,47.37
2022-10-23T02:24:31.200Z,54.79
2022-10-23T02:25:31.194Z,54.79
2022-10-23T02:26:31.193Z,52.53
2022-10-23T02:27:31.170Z,54.95
2022-10-23T02:28:31.161Z,51.56
2022-10-23T02:29:31.149Z,51.72
2022-10-23T02:30:31.151Z,50.27
2022-10-23T02:31:31.138Z,52.69
2022-10-23T02:32:31.118Z,56.24
2022-10-23T02:33:31.110Z,55.75
2022-10-23T02:34:31.097Z,53.66
2022-10-23T02:35:31.096Z,53.98
2022-10-23T02:36:31.074Z,49.95
2022-10-23T02:37:31.061Z,55.11
2022-10-23T02:38:31.055Z,55.59
2022-10-23T02:39:31.056Z,54.95
2022-10-23T02:40:31.060Z,54.79
2022-10-23T02:41:31.027Z,53.82
2022-10-23T02:42:31.019Z,53.66
2022-10-23T02:43:31.004Z,54.62
2022-10-23T02:44:30.996Z,51.56
2022-10-23T02:45:31.047Z,51.40
2022-10-23T02:46:30.976Z,56.40
2022-10-23T02:47:30.968Z,53.50
2022-10-23T02:48:30.955Z,51.24
2022-10-23T02:49:30.946Z,48.82
2022-10-23T02:50:30.938Z,57.04
2022-10-23T02:51:30.936Z,55.59
2022-10-23T02:52:30.921Z,53.17
2022-10-23T02:53:30.906Z,51.56
2022-10-23T02:54:30.898Z,53.33
2022-10-23T02:55:30.903Z,50.27
2022-10-23T02:56:32.657Z,56.88
2022-10-23T02:57:30.868Z,58.49
2022-10-23T02:58:30.863Z,53.01
2022-10-23T02:59:30.844Z,51.56
2022-10-23T03:00:30.836Z,48.50
2022-10-23T03:01:30.957Z,50.60
2022-10-23T03:03:30.809Z,50.11
2022-10-23T03:04:30.798Z,53.01
2022-10-23T03:05:30.797Z,54.79
2022-10-23T03:06:30.782Z,51.72
2022-10-23T03:07:30.767Z,54.30
2022-10-23T03:08:30.757Z,46.25
2022-10-23T03:09:30.746Z,52.53
2022-10-23T03:10:30.739Z,54.95
2022-10-23T03:11:30.735Z,53.66
2022-10-23T03:12:30.718Z,55.75
2022-10-23T03:13:30.709Z,46.73
2022-10-23T03:14:30.698Z,48.82
2022-10-23T03:15:30.696Z,54.95
2022-10-23T03:16:30.697Z,53.82
2022-10-23T03:17:30.667Z,50.27
2022-10-23T03:18:30.659Z,49.79
2022-10-23T03:19:30.646Z,50.92
2022-10-23T03:20:30.640Z,54.62
2022-10-23T03:21:30.644Z,52.69
2022-10-23T03:22:30.619Z,53.50
2022-10-23T03:23:30.612Z,50.60
2022-10-23T03:24:30.602Z,50.76
2022-10-23T03:25:30.584Z,51.40
2022-10-23T03:26:30.585Z,49.79
2022-10-23T03:27:30.567Z,54.62
2022-10-23T03:28:30.554Z,55.91
2022-10-23T03:29:30.544Z,51.08
2022-10-23T03:30:30.534Z,48.02
2022-10-23T03:31:30.543Z,52.05
2022-10-23T03:32:30.516Z,53.50
2022-10-23T03:33:30.507Z,53.50
2022-10-23T03:34:30.492Z,51.40
2022-10-23T03:35:30.483Z,52.37
2022-10-23T03:36:30.480Z,55.27
2022-10-23T03:37:30.474Z,52.69
2022-10-23T03:38:30.450Z,55.11
2022-10-23T03:39:30.434Z,53.17
2022-10-23T03:40:30.425Z,53.01
2022-10-23T03:41:30.435Z,57.04
2022-10-23T03:42:30.426Z,52.53
2022-10-23T03:43:30.398Z,55.59
2022-10-23T03:44:30.389Z,48.98
2022-10-23T03:45:30.375Z,52.21
2022-10-23T03:46:30.376Z,57.85
2022-10-23T03:47:30.350Z,50.60
2022-10-23T03:48:30.342Z,53.01
2022-10-23T03:49:30.330Z,54.30
2022-10-23T03:50:30.323Z,52.53
2022-10-23T03:51:30.333Z,53.66
2022-10-23T03:52:30.308Z,54.95
2022-10-23T03:53:30.291Z,52.21
2022-10-23T03:54:30.282Z,49.79
2022-10-23T03:55:30.269Z,49.79
2022-10-23T03:56:30.271Z,50.27
2022-10-23T03:57:30.243Z,53.01
2022-10-23T03:58:30.235Z,50.92
2022-10-23T03:59:30.225Z,54.62
2022-10-23T04:00:30.317Z,54.46
2022-10-23T04:01:30.316Z,54.30
2022-10-23T04:02:30.265Z,55.11
2022-10-23T04:03:30.179Z,53.01
2022-10-23T04:04:31.176Z,56.07
2022-10-23T04:05:30.184Z,53.82
2022-10-23T04:06:30.152Z,54.46
2022-10-23T04:07:30.151Z,54.46
2022-10-23T04:08:30.135Z,59.46
2022-10-23T04:09:30.126Z,52.37
2022-10-23T04:10:30.129Z,56.07
2022-10-23T04:11:30.107Z,54.30
2022-10-23T04:12:30.098Z,58.17
2022-10-23T04:13:30.081Z,51.72
2022-10-23T04:14:30.074Z,53.98
2022-10-23T04:15:30.073Z,52.21
2022-10-23T04:16:30.050Z,50.27
2022-10-23T04:17:30.053Z,50.76
2022-10-23T04:18:30.032Z,55.11
2022-10-23T04:19:30.025Z,56.56
2022-10-23T04:20:30.023Z,51.40
2022-10-23T04:21:29.999Z,55.27
2022-10-23T04:22:29.994Z,55.11
2022-10-23T04:23:29.977Z,54.79
2022-10-23T04:24:29.966Z,49.79
2022-10-23T04:25:29.967Z,55.43
2022-10-23T04:26:29.949Z,56.24
2022-10-23T04:27:29.935Z,52.85
2022-10-23T04:28:29.931Z,53.50
2022-10-23T04:29:29.912Z,51.08
2022-10-23T04:30:29.916Z,52.21
2022-10-23T04:31:29.894Z,54.79
2022-10-23T04:32:29.882Z,50.43
2022-10-23T04:33:29.874Z,53.17
2022-10-23T04:34:29.864Z,54.30
2022-10-23T04:35:29.874Z,54.95
2022-10-23T04:36:29.849Z,53.17
2022-10-23T04:37:29.835Z,52.53
2022-10-23T04:38:29.827Z,55.43
2022-10-23T04:39:29.817Z,50.43
2022-10-23T04:40:29.815Z,54.95
2022-10-23T04:41:29.789Z,57.52
2022-10-23T04:42:29.801Z,54.79
2022-10-23T04:43:29.792Z,54.95
2022-10-23T04:44:29.770Z,57.36
2022-10-23T04:45:29.757Z,55.91
2022-10-23T04:46:29.759Z,54.62
2022-10-23T04:47:29.736Z,56.72
2022-10-23T04:48:29.727Z,54.79
2022-10-23T04:49:29.721Z,55.91
2022-10-23T04:50:29.704Z,52.85
2022-10-23T04:51:29.709Z,54.30
2022-10-23T04:52:29.686Z,54.46
2022-10-23T04:53:29.668Z,54.95
2022-10-23T04:54:29.664Z,53.50
2022-10-23T04:55:29.652Z,57.36
2022-10-23T04:56:29.650Z,56.07
2022-10-23T04:57:29.631Z,53.50
2022-10-23T04:58:29.626Z,54.14
2022-10-23T04:59:29.606Z,59.62
2022-10-23T05:00:29.696Z,54.95
2022-10-23T05:01:29.761Z,52.69
2022-10-23T05:02:29.576Z,56.72
2022-10-23T05:03:29.566Z,53.33
2022-10-23T05:04:29.556Z,52.05
2022-10-23T05:05:29.546Z,54.46
2022-10-23T05:06:29.546Z,54.14
2022-10-23T05:07:29.529Z,53.33
2022-10-23T05:08:29.514Z,55.43
2022-10-23T05:09:29.505Z,53.33
2022-10-23T05:10:29.492Z,54.14
2022-10-23T05:11:29.494Z,53.17
2022-10-23T05:12:29.475Z,55.59
2022-10-23T05:13:29.471Z,52.53
2022-10-23T05:14:29.454Z,53.33
2022-10-23T05:15:29.511Z,53.98
2022-10-23T05:16:55.352Z,49.95
2022-10-23T05:17:29.432Z,52.37
2022-10-23T05:18:29.415Z,53.01
2022-10-23T05:19:29.407Z,51.56
2022-10-23T05:20:29.394Z,53.98
2022-10-23T05:21:29.401Z,58.01
2022-10-23T05:22:29.370Z,55.91
2022-10-23T05:23:29.362Z,54.30
2022-10-23T05:24:29.353Z,54.46
2022-10-23T05:25:29.341Z,50.92
2022-10-23T05:26:29.345Z,55.59
2022-10-23T05:27:29.320Z,54.62
2022-10-23T05:28:29.314Z,53.33
2022-10-23T05:29:29.307Z,53.66
2022-10-23T05:30:29.292Z,54.95
2022-10-23T05:31:29.299Z,52.85
2022-10-23T05:32:29.273Z,52.85
2022-10-23T05:33:29.265Z,56.56
2022-10-23T05:34:29.254Z,50.92
2022-10-23T05:35:29.245Z,52.53
2022-10-23T05:36:29.248Z,51.72
2022-10-23T05:37:29.223Z,52.69
2022-10-23T05:38:29.213Z,55.59
2022-10-23T05:39:29.205Z,49.95
2022-10-23T05:40:29.279Z,50.92
2022-10-23T05:41:29.192Z,54.95
2022-10-23T05:42:29.174Z,53.17
2022-10-23T05:43:29.171Z,51.24
2022-10-23T05:44:29.150Z,53.66
2022-10-23T05:45:29.146Z,53.01
2022-10-23T05:46:29.147Z,53.50
2022-10-23T05:47:29.126Z,54.79
2022-10-23T05:48:36.261Z,53.50
2022-10-23T05:49:31.107Z,54.46
2022-10-23T05:50:29.099Z,54.14
2022-10-23T05:51:29.090Z,57.36
2022-10-23T05:52:29.074Z,56.24
2022-10-23T05:53:29.065Z,55.75
2022-10-23T05:54:29.053Z,54.14
2022-10-23T05:55:29.044Z,54.30
2022-10-23T05:56:29.045Z,54.30
2022-10-23T05:57:29.020Z,57.52
2022-10-23T05:58:29.012Z,57.69
2022-10-23T05:59:29.002Z,55.27
2022-10-23T06:00:29.086Z,56.07
2022-10-23T06:01:29.110Z,59.30
2022-10-23T06:02:29.099Z,56.56
2022-10-23T06:03:28.962Z,55.91
2022-10-23T06:04:28.954Z,52.05
2022-10-23T06:05:28.981Z,56.24
2022-10-23T06:06:28.943Z,56.07
2022-10-23T06:07:31.222Z,58.17
2022-10-23T06:08:28.910Z,55.75
2022-10-23T06:09:28.903Z,55.11
2022-10-23T06:10:28.962Z,54.30
2022-10-23T06:11:28.896Z,57.52
2022-10-23T06:12:28.870Z,56.56
2022-10-23T06:13:28.860Z,57.04
2022-10-23T06:14:28.850Z,55.43
2022-10-23T06:15:28.839Z,56.56
2022-10-23T06:16:28.848Z,54.30
2022-10-23T06:17:28.825Z,55.75
2022-10-23T06:18:28.811Z,55.11
2022-10-23T06:19:28.803Z,55.59
2022-10-23T06:20:28.941Z,54.62
2022-10-23T06:21:28.788Z,51.40
2022-10-23T06:22:28.776Z,54.79
2022-10-23T06:23:28.761Z,54.95
2022-10-23T06:24:28.751Z,56.56
2022-10-23T06:25:28.741Z,55.59
2022-10-23T06:26:28.738Z,54.62
2022-10-23T06:27:28.725Z,54.79
2022-10-23T06:28:28.711Z,56.88
2022-10-23T06:29:28.700Z,54.46
2022-10-23T06:30:28.904Z,56.56
2022-10-23T06:31:28.695Z,55.91
2022-10-23T06:32:28.671Z,56.72
2022-10-23T06:33:28.655Z,56.40
2022-10-23T06:34:28.652Z,54.95
2022-10-23T06:35:28.646Z,55.43
2022-10-23T06:36:28.642Z,52.53
2022-10-23T06:37:28.625Z,53.33
2022-10-23T06:38:28.620Z,56.07
2022-10-23T06:39:31.240Z,57.04
2022-10-23T06:40:28.683Z,54.79
2022-10-23T06:41:28.590Z,55.91
2022-10-23T06:42:28.574Z,53.66
2022-10-23T06:43:28.564Z,54.14
2022-10-23T06:44:28.547Z,56.88
2022-10-23T06:45:28.538Z,53.66
2022-10-23T06:46:28.539Z,52.37
2022-10-23T06:47:28.520Z,55.91
2022-10-23T06:48:28.516Z,54.95
2022-10-23T06:49:28.498Z,52.69
2022-10-23T06:50:28.551Z,53.17
2022-10-23T06:51:28.495Z,55.91
2022-10-23T06:52:45.977Z,54.30
2022-10-23T06:53:30.468Z,58.49
2022-10-23T06:54:28.449Z,55.11
2022-10-23T06:55:28.557Z,55.59
2022-10-23T06:56:28.443Z,56.56
2022-10-23T06:57:28.422Z,55.43
2022-10-23T06:58:28.407Z,53.82
2022-10-23T06:59:28.394Z,52.85
2022-10-23T07:00:28.466Z,56.24
2022-10-23T07:01:28.607Z,55.11
2022-10-23T07:02:28.366Z,54.62
2022-10-23T07:03:28.357Z,55.91
2022-10-23T07:04:28.342Z,55.91
2022-10-23T07:05:28.334Z,57.04
2022-10-23T07:06:28.336Z,57.04
2022-10-23T07:07:28.316Z,56.40
2022-10-23T07:08:28.300Z,55.59
2022-10-23T07:09:28.304Z,57.36
2022-10-23T07:10:28.281Z,56.88
2022-10-23T07:11:29.294Z,53.01
2022-10-23T07:12:28.263Z,53.82
2022-10-23T07:13:28.250Z,54.62
2022-10-23T07:14:28.242Z,55.91
2022-10-23T07:15:28.235Z,54.46
2022-10-23T07:16:28.247Z,54.14
2022-10-23T07:17:28.208Z,54.46
2022-10-23T07:18:28.242Z,54.14
2022-10-23T07:19:28.200Z,55.11
2022-10-23T07:20:28.183Z,55.11
2022-10-23T07:21:28.184Z,55.75
2022-10-23T07:22:28.163Z,51.40
2022-10-23T07:23:28.156Z,52.53
2022-10-23T07:24:28.142Z,55.11
2022-10-23T07:25:28.132Z,53.01
2022-10-23T07:26:28.135Z,54.46
2022-10-23T07:27:28.115Z,54.62
2022-10-23T07:28:28.105Z,52.21
2022-10-23T07:29:28.087Z,54.30
2022-10-23T07:30:28.086Z,52.21
2022-10-23T07:31:28.425Z,54.46
2022-10-23T07:32:28.064Z,53.33
2022-10-23T07:33:28.053Z,55.43
2022-10-23T07:34:28.044Z,53.17
2022-10-23T07:35:28.030Z,55.59
2022-10-23T07:36:28.032Z,55.59
2022-10-23T07:37:28.012Z,55.43
2022-10-23T07:38:27.997Z,51.24
2022-10-23T07:39:27.994Z,53.82
2022-10-23T07:40:27.978Z,55.75
2022-10-23T07:41:27.978Z,55.75
2022-10-23T07:42:27.951Z,56.24
2022-10-23T07:43:28.023Z,53.98
2022-10-23T07:44:27.965Z,56.88
2022-10-23T07:45:27.927Z,56.07
2022-10-23T07:46:27.932Z,54.79
2022-10-23T07:47:27.907Z,60.59
2022-10-23T07:48:27.898Z,53.17
2022-10-23T07:49:27.882Z,56.88
2022-10-23T07:50:27.873Z,55.11
2022-10-23T07:51:27.875Z,56.88
2022-10-23T07:52:31.951Z,53.50
2022-10-23T07:53:28.843Z,52.05
2022-10-23T07:54:28.273Z,54.79
2022-10-23T07:55:28.819Z,54.95
2022-10-23T07:56:27.825Z,56.88
2022-10-23T07:57:27.826Z,57.20
2022-10-23T07:58:27.794Z,57.04
2022-10-23T07:59:27.788Z,57.04
2022-10-23T08:00:27.903Z,55.43
2022-10-23T08:01:27.822Z,58.97
2022-10-23T08:02:27.849Z,54.95
2022-10-23T08:03:27.742Z,55.43
2022-10-23T08:04:27.733Z,55.59
2022-10-23T08:05:27.723Z,55.43
2022-10-23T08:06:27.722Z,55.11
2022-10-23T08:07:27.710Z,56.88
2022-10-23T08:08:27.693Z,55.75
2022-10-23T08:09:27.685Z,55.59
2022-10-23T08:10:27.664Z,54.62
2022-10-23T08:11:28.672Z,53.82
2022-10-23T08:12:27.653Z,54.62
2022-10-23T08:13:27.641Z,54.14
2022-10-23T08:14:27.631Z,56.07
2022-10-23T08:15:27.618Z,55.59
2022-10-23T08:16:27.621Z,54.79
2022-10-23T08:17:28.328Z,55.91
2022-10-23T08:18:28.592Z,52.69
2022-10-23T08:19:27.587Z,53.82
2022-10-23T08:20:27.578Z,56.24
2022-10-23T08:21:27.579Z,54.95
2022-10-23T08:22:27.554Z,57.52
2022-10-23T08:23:27.541Z,56.88
2022-10-23T08:24:27.529Z,54.46
2022-10-23T08:25:27.565Z,57.04
2022-10-23T08:26:27.534Z,55.43
2022-10-23T08:27:27.506Z,57.04
2022-10-23T08:28:27.491Z,57.52
2022-10-23T08:29:27.477Z,58.01
2022-10-23T08:30:27.470Z,56.56
2022-10-23T08:31:27.497Z,57.20
2022-10-23T08:32:27.476Z,56.07
2022-10-23T08:33:27.443Z,55.11
2022-10-23T08:34:27.429Z,56.24
2022-10-23T08:35:27.416Z,55.91
2022-10-23T08:36:27.409Z,56.24
2022-10-23T08:37:27.411Z,55.75
2022-10-23T08:38:27.389Z,55.59
2022-10-23T08:39:27.379Z,58.01
2022-10-23T08:40:27.360Z,54.30
2022-10-23T08:41:27.357Z,55.91
2022-10-23T08:42:27.354Z,55.91
2022-10-23T08:43:27.334Z,57.52
2022-10-23T08:44:27.321Z,56.56
2022-10-23T08:45:27.314Z,57.20
2022-10-23T08:46:27.302Z,57.36
2022-10-23T08:47:27.308Z,59.14
2022-10-23T08:48:27.286Z,57.36
2022-10-23T08:49:27.278Z,56.40
2022-10-23T08:50:27.259Z,58.17
2022-10-23T08:51:27.252Z,57.69
2022-10-23T08:52:27.247Z,55.27
2022-10-23T08:53:28.228Z,55.43
2022-10-23T08:54:27.222Z,59.30
2022-10-23T08:55:27.208Z,57.04
2022-10-23T08:56:27.304Z,55.43
2022-10-23T08:57:27.202Z,55.11
2022-10-23T08:58:27.177Z,57.20
2022-10-23T08:59:27.166Z,57.04
2022-10-23T09:00:27.158Z,56.40
2022-10-23T09:01:27.272Z,56.72
2022-10-23T09:02:27.201Z,59.30
2022-10-23T09:03:27.129Z,58.97
2022-10-23T09:04:27.111Z,58.49
2022-10-23T09:05:27.102Z,57.04
2022-10-23T09:06:27.117Z,56.40
2022-10-23T09:07:27.100Z,58.49
2022-10-23T09:08:27.126Z,56.88
2022-10-23T09:09:27.065Z,58.49
2022-10-23T09:10:27.052Z,59.46
2022-10-23T09:11:27.044Z,58.01
2022-10-23T09:12:27.042Z,56.72
2022-10-23T09:13:27.021Z,56.88
2022-10-23T09:14:27.012Z,59.62
2022-10-23T09:15:27.002Z,55.43
2022-10-23T09:16:26.993Z,58.01
2022-10-23T09:17:27.006Z,56.72
2022-10-23T09:18:26.969Z,57.20
2022-10-23T09:19:26.965Z,55.91
2022-10-23T09:20:26.950Z,57.69
2022-10-23T09:21:26.942Z,57.20
2022-10-23T09:22:26.943Z,56.88
2022-10-23T09:23:26.919Z,55.59
2022-10-23T09:24:26.913Z,57.04
2022-10-23T09:25:26.898Z,57.69
2022-10-23T09:26:26.890Z,57.04
2022-10-23T09:27:26.890Z,55.27
2022-10-23T09:28:26.884Z,57.04
2022-10-23T09:29:26.858Z,57.52
2022-10-23T09:30:26.850Z,56.40
2022-10-23T09:31:26.839Z,57.36
2022-10-23T09:32:26.843Z,57.20
2022-10-23T09:33:26.816Z,58.65
2022-10-23T09:34:26.815Z,58.17
2022-10-23T09:35:26.797Z,58.33
2022-10-23T09:36:26.791Z,56.88
2022-10-23T09:37:26.785Z,57.69
2022-10-23T09:38:26.770Z,58.01
2022-10-23T09:39:26.761Z,55.91
2022-10-23T09:40:26.750Z,56.72
2022-10-23T09:41:26.737Z,57.36
2022-10-23T09:42:26.736Z,57.04
2022-10-23T09:43:26.720Z,57.52
2022-10-23T09:44:26.709Z,57.52
2022-10-23T09:45:26.686Z,56.88
2022-10-23T09:46:27.692Z,56.56
2022-10-23T09:47:26.687Z,57.36
2022-10-23T09:48:26.667Z,57.85
2022-10-23T09:49:26.657Z,56.88
2022-10-23T09:50:26.651Z,56.72
2022-10-23T09:51:26.641Z,57.69
2022-10-23T09:52:26.637Z,57.04
2022-10-23T09:53:26.618Z,58.65
2022-10-23T09:54:26.606Z,57.52
2022-10-23T09:55:26.596Z,57.36
2022-10-23T09:56:26.618Z,56.72
2022-10-23T09:57:26.576Z,57.36
2022-10-23T09:58:26.578Z,56.24
2022-10-23T09:59:26.555Z,54.62
2022-10-23T10:00:26.555Z,57.04
2022-10-23T10:01:26.693Z,57.85
2022-10-23T10:02:26.529Z,56.56
2022-10-23T10:03:26.517Z,58.97
2022-10-23T10:04:26.510Z,58.33
2022-10-23T10:05:26.500Z,59.78
2022-10-23T10:06:26.563Z,58.81
2022-10-23T10:07:26.474Z,57.20
2022-10-23T10:08:26.470Z,58.01
2022-10-23T10:09:26.457Z,58.49
2022-10-23T10:10:26.452Z,57.52
2022-10-23T10:11:26.448Z,57.85
2022-10-23T10:12:26.430Z,57.52
2022-10-23T10:13:26.428Z,57.04
2022-10-23T10:14:26.410Z,58.01
2022-10-23T10:15:26.404Z,57.52
2022-10-23T10:16:26.443Z,58.01
2022-10-23T10:17:26.382Z,58.33
2022-10-23T10:18:26.367Z,57.85
2022-10-23T10:19:26.355Z,55.11
2022-10-23T10:20:26.347Z,57.85
2022-10-23T10:21:26.350Z,59.14
2022-10-23T10:22:26.324Z,58.01
2022-10-23T10:23:26.319Z,58.49
2022-10-23T10:24:26.306Z,57.69
2022-10-23T10:25:26.294Z,58.01
2022-10-23T10:26:26.322Z,60.42
2022-10-23T10:27:26.278Z,58.49
2022-10-23T10:28:26.269Z,59.62
2022-10-23T10:29:26.263Z,58.33
2022-10-23T10:30:26.251Z,59.30
2022-10-23T10:31:26.241Z,58.97
2022-10-23T10:32:26.242Z,60.75
2022-10-23T10:33:26.223Z,58.01
2022-10-23T10:34:26.214Z,58.49
2022-10-23T10:35:26.208Z,57.69
2022-10-23T10:37:27.183Z,59.30
2022-10-23T10:38:26.170Z,56.56
2022-10-23T10:39:26.168Z,58.17
2022-10-23T10:40:26.157Z,59.14
2022-10-23T10:41:26.143Z,58.97
2022-10-23T10:42:26.142Z,58.17
2022-10-23T10:43:26.127Z,60.10
2022-10-23T10:44:26.115Z,60.10
2022-10-23T10:45:26.105Z,58.97
2022-10-23T10:46:26.105Z,59.14
2022-10-23T10:47:26.100Z,58.81
2022-10-23T10:48:26.081Z,58.33
2022-10-23T10:49:26.076Z,58.33
2022-10-23T10:50:26.060Z,58.33
2022-10-23T10:51:26.050Z,58.81
2022-10-23T10:52:26.051Z,58.97
2022-10-23T10:53:26.028Z,58.65
2022-10-23T10:54:26.021Z,58.65
2022-10-23T10:55:26.011Z,59.62
2022-10-23T10:56:26.003Z,58.01
2022-10-23T10:57:26.003Z,58.81
2022-10-23T10:58:25.987Z,57.69
2022-10-23T10:59:25.975Z,60.42
2022-10-23T11:00:25.963Z,60.75
2022-10-23T11:01:26.086Z,60.10
2022-10-23T11:02:26.012Z,60.59
2022-10-23T11:03:25.933Z,60.75
2022-10-23T11:04:25.923Z,59.78
2022-10-23T11:05:25.907Z,59.46
2022-10-23T11:06:25.900Z,59.30
2022-10-23T11:07:25.906Z,58.33
2022-10-23T11:08:25.879Z,58.01
2022-10-23T11:09:25.870Z,58.01
2022-10-23T11:10:25.860Z,58.49
2022-10-23T11:11:25.847Z,56.40
2022-10-23T11:12:25.854Z,58.49
2022-10-23T11:13:25.830Z,58.33
2022-10-23T11:14:25.824Z,60.10
2022-10-23T11:15:25.812Z,59.30
2022-10-23T11:16:57.711Z,59.62
2022-10-23T11:17:25.789Z,58.97
2022-10-23T11:18:25.780Z,58.49
2022-10-23T11:19:25.770Z,57.52
2022-10-23T11:20:25.764Z,61.23
2022-10-23T11:21:25.753Z,58.81
2022-10-23T11:22:25.748Z,61.23
2022-10-23T11:23:25.728Z,60.91
2022-10-23T11:24:25.715Z,60.26
2022-10-23T11:25:25.710Z,58.49
2022-10-23T11:26:25.697Z,59.30
2022-10-23T11:27:25.760Z,59.14
2022-10-23T11:28:25.678Z,58.97
2022-10-23T11:29:25.672Z,60.42
2022-10-23T11:30:25.660Z,59.14
2022-10-23T11:31:25.669Z,61.55
2022-10-23T11:32:25.719Z,60.26
2022-10-23T11:33:25.625Z,61.23
2022-10-23T11:34:25.619Z,61.23
2022-10-23T11:35:25.609Z,60.91
2022-10-23T11:36:25.599Z,60.42
2022-10-23T11:37:25.601Z,59.78
2022-10-23T11:38:25.580Z,59.94
2022-10-23T11:39:25.602Z,60.42
2022-10-23T11:40:25.557Z,60.91
2022-10-23T11:41:26.920Z,61.55
2022-10-23T11:42:25.550Z,61.07
2022-10-23T11:43:25.528Z,60.75
2022-10-23T11:44:25.520Z,59.78
2022-10-23T11:45:25.513Z,60.75
2022-10-23T11:46:25.506Z,60.75
2022-10-23T11:47:25.486Z,61.23
2022-10-23T11:48:25.478Z,60.59
2022-10-23T11:49:25.468Z,59.78
2022-10-23T11:50:25.458Z,59.30
2022-10-23T11:51:25.464Z,59.30
2022-10-23T11:52:25.439Z,58.65
2022-10-23T11:53:25.428Z,59.46
2022-10-23T11:54:25.417Z,58.97
2022-10-23T11:55:25.412Z,59.30
2022-10-23T11:56:25.423Z,58.65
2022-10-23T11:57:25.456Z,58.81
2022-10-23T11:58:25.381Z,59.94
2022-10-23T11:59:25.373Z,59.94
2022-10-23T12:00:25.359Z,60.10
2022-10-23T12:01:25.409Z,59.30
2022-10-23T12:02:25.610Z,59.62
2022-10-23T12:03:25.331Z,58.49
2022-10-23T12:04:25.321Z,58.97
2022-10-23T12:05:25.311Z,59.62
2022-10-23T12:06:25.302Z,58.49
2022-10-23T12:07:25.302Z,59.62
2022-10-23T12:08:25.282Z,59.46
2022-10-23T12:09:25.271Z,58.33
2022-10-23T12:10:25.260Z,59.14
2022-10-23T12:11:27.476Z,58.49
2022-10-23T12:12:25.248Z,60.10
2022-10-23T12:13:25.230Z,59.30
2022-10-23T12:14:25.218Z,59.62
2022-10-23T12:15:25.214Z,60.59
2022-10-23T12:16:25.199Z,57.52
2022-10-23T12:17:25.204Z,59.78
2022-10-23T12:18:25.178Z,59.30
2022-10-23T12:19:25.170Z,59.46
2022-10-23T12:20:25.170Z,60.10
2022-10-23T12:21:25.148Z,58.49
2022-10-23T12:22:25.215Z,59.14
2022-10-23T12:23:25.128Z,61.55
2022-10-23T12:24:25.120Z,59.94
2022-10-23T12:25:25.113Z,59.30
2022-10-23T12:26:25.098Z,59.62
2022-10-23T12:27:25.099Z,58.97
2022-10-23T12:28:25.083Z,58.01
2022-10-23T12:29:25.069Z,59.62
2022-10-23T12:30:25.059Z,59.78
2022-10-23T12:31:25.050Z,59.78
2022-10-23T12:32:25.054Z,58.81
2022-10-23T12:33:25.026Z,59.46
2022-10-23T12:34:25.015Z,59.14
2022-10-23T12:35:25.010Z,59.14
2022-10-23T12:36:25.001Z,60.91
2022-10-23T12:37:25.003Z,59.30
2022-10-23T12:38:24.980Z,60.59
2022-10-23T12:39:24.975Z,60.10
2022-10-23T12:40:24.963Z,59.46
2022-10-23T12:41:24.952Z,59.62
2022-10-23T12:42:24.955Z,60.10
2022-10-23T12:43:24.934Z,58.33
2022-10-23T12:44:24.921Z,58.65
2022-10-23T12:45:24.906Z,58.49
2022-10-23T12:46:24.902Z,57.52
2022-10-23T12:47:24.978Z,58.01
2022-10-23T12:48:24.888Z,58.97
2022-10-23T12:49:24.879Z,58.97
2022-10-23T12:50:24.857Z,58.65
2022-10-23T12:51:24.851Z,58.97
2022-10-23T12:52:24.861Z,59.14
2022-10-23T12:53:24.832Z,59.94
2022-10-23T12:54:24.835Z,58.81
2022-10-23T12:55:24.815Z,58.97